sensor_id;sensor_type;location;lat;lon;timestamp;temperature;humidity
314;DHT22;143;51.634;7.112;2024-03-02T00:00:36;8.60;1.00
314;DHT22;143;51.634;7.112;2024-03-02T00:03:02;8.60;1.00
314;DHT22;143;51.634;7.112;2024-03-02T00:05:28;8.60;1.00
314;DHT22;143;51.634;7.112;2024-03-02T00:07:58;8.70;1.00
314;DHT22;143;51.634;7.112;2024-03-02T00:10:48;8.60;1.00
314;DHT22;143;51.634;7.112;2024-03-02T00:13:13;8.60;1.00
314;DHT22;143;51.634;7.112;2024-03-02T00:15:46;8.70;1.00
314;DHT22;143;51.634;7.112;2024-03-02T00:18:18;8.70;1.00
314;DHT22;143;51.634;7.112;2024-03-02T00:20:44;8.60;1.00
314;DHT22;143;51.634;7.112;2024-03-02T00:23:10;8.50;1.00
314;DHT22;143;51.634;7.112;2024-03-02T00:25:43;8.70;1.00
314;DHT22;143;51.634;7.112;2024-03-02T00:28:16;8.60;1.00
314;DHT22;143;51.634;7.112;2024-03-02T00:33:20;8.60;1.00
314;DHT22;143;51.634;7.112;2024-03-02T00:35:47;8.50;1.00
314;DHT22;143;51.634;7.112;2024-03-02T00:38:13;8.70;1.00
314;DHT22;143;51.634;7.112;2024-03-02T00:40:41;8.50;1.00
314;DHT22;143;51.634;7.112;2024-03-02T00:46:03;8.80;1.00
314;DHT22;143;51.634;7.112;2024-03-02T00:48:29;8.70;1.00
314;DHT22;143;51.634;7.112;2024-03-02T00:50:57;8.60;1.00
314;DHT22;143;51.634;7.112;2024-03-02T00:53:26;8.50;1.00
314;DHT22;143;51.634;7.112;2024-03-02T00:55:52;8.70;1.00
314;DHT22;143;51.634;7.112;2024-03-02T00:58:18;8.70;1.00
314;DHT22;143;51.634;7.112;2024-03-02T01:00:43;8.60;1.00
314;DHT22;143;51.634;7.112;2024-03-02T01:03:09;8.50;1.00
314;DHT22;143;51.634;7.112;2024-03-02T01:05:36;8.80;1.00
314;DHT22;143;51.634;7.112;2024-03-02T01:08:02;8.70;1.00
314;DHT22;143;51.634;7.112;2024-03-02T01:10:27;8.70;1.00
314;DHT22;143;51.634;7.112;2024-03-02T01:12:53;8.80;1.00
314;DHT22;143;51.634;7.112;2024-03-02T01:15:19;8.40;1.00
314;DHT22;143;51.634;7.112;2024-03-02T01:17:44;8.50;1.00
314;DHT22;143;51.634;7.112;2024-03-02T01:20:11;8.70;1.00
314;DHT22;143;51.634;7.112;2024-03-02T01:22:36;8.70;1.00
314;DHT22;143;51.634;7.112;2024-03-02T01:25:03;8.60;1.00
314;DHT22;143;51.634;7.112;2024-03-02T01:27:28;8.60;1.00
314;DHT22;143;51.634;7.112;2024-03-02T01:29:54;8.70;1.00
314;DHT22;143;51.634;7.112;2024-03-02T01:32:20;8.60;1.00
314;DHT22;143;51.634;7.112;2024-03-02T01:34:45;8.80;1.00
314;DHT22;143;51.634;7.112;2024-03-02T01:37:11;8.60;1.00
314;DHT22;143;51.634;7.112;2024-03-02T01:39:36;8.70;1.00
314;DHT22;143;51.634;7.112;2024-03-02T01:42:02;8.70;1.00
314;DHT22;143;51.634;7.112;2024-03-02T01:44:27;8.50;1.00
314;DHT22;143;51.634;7.112;2024-03-02T01:46:53;8.70;1.00
314;DHT22;143;51.634;7.112;2024-03-02T01:49:19;8.80;1.00
314;DHT22;143;51.634;7.112;2024-03-02T01:51:44;8.70;1.00
314;DHT22;143;51.634;7.112;2024-03-02T01:54:10;8.70;1.00
314;DHT22;143;51.634;7.112;2024-03-02T01:56:35;8.80;1.00
314;DHT22;143;51.634;7.112;2024-03-02T01:59:01;8.70;1.00
314;DHT22;143;51.634;7.112;2024-03-02T02:01:27;8.90;1.00
314;DHT22;143;51.634;7.112;2024-03-02T02:03:52;8.90;1.00
314;DHT22;143;51.634;7.112;2024-03-02T02:06:18;8.90;1.00
314;DHT22;143;51.634;7.112;2024-03-02T02:08:44;8.90;1.00
314;DHT22;143;51.634;7.112;2024-03-02T02:11:10;8.80;1.00
314;DHT22;143;51.634;7.112;2024-03-02T02:13:36;8.90;1.00
314;DHT22;143;51.634;7.112;2024-03-02T02:16:06;8.90;1.00
314;DHT22;143;51.634;7.112;2024-03-02T02:18:32;8.90;1.00
314;DHT22;143;51.634;7.112;2024-03-02T02:20:58;9.00;1.00
314;DHT22;143;51.634;7.112;2024-03-02T02:23:23;8.90;1.00
314;DHT22;143;51.634;7.112;2024-03-02T02:25:49;8.80;1.00
314;DHT22;143;51.634;7.112;2024-03-02T02:28:14;8.90;1.00
314;DHT22;143;51.634;7.112;2024-03-02T02:30:40;9.00;1.00
314;DHT22;143;51.634;7.112;2024-03-02T02:33:05;9.00;1.00
314;DHT22;143;51.634;7.112;2024-03-02T02:35:31;8.90;1.00
314;DHT22;143;51.634;7.112;2024-03-02T02:37:57;9.00;1.00
314;DHT22;143;51.634;7.112;2024-03-02T02:40:24;9.00;1.00
314;DHT22;143;51.634;7.112;2024-03-02T02:42:49;9.00;1.00
314;DHT22;143;51.634;7.112;2024-03-02T02:45:17;9.00;1.00
314;DHT22;143;51.634;7.112;2024-03-02T02:47:43;9.20;1.00
314;DHT22;143;51.634;7.112;2024-03-02T02:50:11;9.10;1.00
314;DHT22;143;51.634;7.112;2024-03-02T02:52:38;8.90;1.00
314;DHT22;143;51.634;7.112;2024-03-02T02:55:06;9.00;1.00
314;DHT22;143;51.634;7.112;2024-03-02T02:57:33;9.10;1.00
314;DHT22;143;51.634;7.112;2024-03-02T03:00:06;9.00;1.00
314;DHT22;143;51.634;7.112;2024-03-02T03:02:36;9.00;1.00
314;DHT22;143;51.634;7.112;2024-03-02T03:05:02;9.00;1.00
314;DHT22;143;51.634;7.112;2024-03-02T03:07:27;9.00;1.00
314;DHT22;143;51.634;7.112;2024-03-02T03:09:53;9.20;1.00
314;DHT22;143;51.634;7.112;2024-03-02T03:12:18;9.10;1.00
314;DHT22;143;51.634;7.112;2024-03-02T03:14:44;9.30;1.00
314;DHT22;143;51.634;7.112;2024-03-02T03:17:09;9.10;1.00
314;DHT22;143;51.634;7.112;2024-03-02T03:19:35;9.20;1.00
314;DHT22;143;51.634;7.112;2024-03-02T03:22:01;9.30;1.00
314;DHT22;143;51.634;7.112;2024-03-02T03:24:26;9.30;1.00
314;DHT22;143;51.634;7.112;2024-03-02T03:26:52;9.20;1.00
314;DHT22;143;51.634;7.112;2024-03-02T03:29:17;9.30;1.00
314;DHT22;143;51.634;7.112;2024-03-02T03:31:43;9.30;1.00
314;DHT22;143;51.634;7.112;2024-03-02T03:34:08;9.10;1.00
314;DHT22;143;51.634;7.112;2024-03-02T03:36:34;9.00;1.00
314;DHT22;143;51.634;7.112;2024-03-02T03:38:59;9.30;1.00
314;DHT22;143;51.634;7.112;2024-03-02T03:41:27;9.10;1.00
314;DHT22;143;51.634;7.112;2024-03-02T03:43:52;9.30;1.00
314;DHT22;143;51.634;7.112;2024-03-02T03:46:18;9.10;1.00
314;DHT22;143;51.634;7.112;2024-03-02T03:48:43;9.00;1.00
314;DHT22;143;51.634;7.112;2024-03-02T03:51:09;9.30;1.00
314;DHT22;143;51.634;7.112;2024-03-02T03:53:35;9.30;1.00
314;DHT22;143;51.634;7.112;2024-03-02T03:56:00;9.10;1.00
314;DHT22;143;51.634;7.112;2024-03-02T03:58:26;9.10;1.00
314;DHT22;143;51.634;7.112;2024-03-02T04:00:51;9.30;1.00
314;DHT22;143;51.634;7.112;2024-03-02T04:03:17;9.20;1.00
314;DHT22;143;51.634;7.112;2024-03-02T04:05:42;9.30;1.00
314;DHT22;143;51.634;7.112;2024-03-02T04:08:08;9.20;1.00
314;DHT22;143;51.634;7.112;2024-03-02T04:10:33;9.10;1.00
314;DHT22;143;51.634;7.112;2024-03-02T04:12:59;9.20;1.00
314;DHT22;143;51.634;7.112;2024-03-02T04:15:25;9.10;1.00
314;DHT22;143;51.634;7.112;2024-03-02T04:17:50;8.90;1.00
314;DHT22;143;51.634;7.112;2024-03-02T04:20:16;9.10;1.00
314;DHT22;143;51.634;7.112;2024-03-02T04:22:41;8.80;1.00
314;DHT22;143;51.634;7.112;2024-03-02T04:25:07;9.10;1.00
314;DHT22;143;51.634;7.112;2024-03-02T04:27:33;9.10;1.00
314;DHT22;143;51.634;7.112;2024-03-02T04:29:59;9.10;1.00
314;DHT22;143;51.634;7.112;2024-03-02T04:32:26;8.90;1.00
314;DHT22;143;51.634;7.112;2024-03-02T04:34:51;9.10;1.00
314;DHT22;143;51.634;7.112;2024-03-02T04:37:17;8.90;1.00
314;DHT22;143;51.634;7.112;2024-03-02T04:39:42;9.00;1.00
314;DHT22;143;51.634;7.112;2024-03-02T04:42:08;9.00;1.00
314;DHT22;143;51.634;7.112;2024-03-02T04:44:34;8.70;1.00
314;DHT22;143;51.634;7.112;2024-03-02T04:46:59;9.00;1.00
314;DHT22;143;51.634;7.112;2024-03-02T04:49:25;9.00;1.00
314;DHT22;143;51.634;7.112;2024-03-02T04:51:50;9.00;1.00
314;DHT22;143;51.634;7.112;2024-03-02T04:54:16;9.00;1.00
314;DHT22;143;51.634;7.112;2024-03-02T04:56:42;8.90;1.00
314;DHT22;143;51.634;7.112;2024-03-02T04:59:16;8.80;1.00
314;DHT22;143;51.634;7.112;2024-03-02T05:01:42;8.60;1.00
314;DHT22;143;51.634;7.112;2024-03-02T05:04:08;8.80;1.00
314;DHT22;143;51.634;7.112;2024-03-02T05:06:39;8.70;1.00
314;DHT22;143;51.634;7.112;2024-03-02T05:09:08;8.80;1.00
314;DHT22;143;51.634;7.112;2024-03-02T05:11:35;8.90;1.00
314;DHT22;143;51.634;7.112;2024-03-02T05:14:04;8.60;1.00
314;DHT22;143;51.634;7.112;2024-03-02T05:16:33;8.70;1.00
314;DHT22;143;51.634;7.112;2024-03-02T05:18:58;8.50;1.00
314;DHT22;143;51.634;7.112;2024-03-02T05:21:24;8.60;1.00
314;DHT22;143;51.634;7.112;2024-03-02T05:23:49;8.60;1.00
314;DHT22;143;51.634;7.112;2024-03-02T05:26:15;8.60;1.00
314;DHT22;143;51.634;7.112;2024-03-02T05:28:40;8.50;1.00
314;DHT22;143;51.634;7.112;2024-03-02T05:31:06;8.50;1.00
314;DHT22;143;51.634;7.112;2024-03-02T05:33:32;8.70;1.00
314;DHT22;143;51.634;7.112;2024-03-02T05:35:58;8.40;1.00
314;DHT22;143;51.634;7.112;2024-03-02T05:38:24;8.30;1.00
314;DHT22;143;51.634;7.112;2024-03-02T05:40:49;8.30;1.00
314;DHT22;143;51.634;7.112;2024-03-02T05:43:15;8.60;1.00
314;DHT22;143;51.634;7.112;2024-03-02T05:45:41;8.40;1.00
314;DHT22;143;51.634;7.112;2024-03-02T05:48:07;8.40;1.00
314;DHT22;143;51.634;7.112;2024-03-02T05:50:33;8.30;1.00
314;DHT22;143;51.634;7.112;2024-03-02T05:52:58;8.30;1.00
314;DHT22;143;51.634;7.112;2024-03-02T05:55:24;8.30;1.00
314;DHT22;143;51.634;7.112;2024-03-02T05:57:50;8.30;1.00
314;DHT22;143;51.634;7.112;2024-03-02T06:00:35;8.20;1.00
314;DHT22;143;51.634;7.112;2024-03-02T06:03:01;8.20;1.00
314;DHT22;143;51.634;7.112;2024-03-02T06:05:27;8.00;1.00
314;DHT22;143;51.634;7.112;2024-03-02T06:07:52;8.40;1.00
314;DHT22;143;51.634;7.112;2024-03-02T06:10:18;8.30;1.00
314;DHT22;143;51.634;7.112;2024-03-02T06:12:43;8.30;1.00
314;DHT22;143;51.634;7.112;2024-03-02T06:15:09;8.30;1.00
314;DHT22;143;51.634;7.112;2024-03-02T06:17:36;8.20;1.00
314;DHT22;143;51.634;7.112;2024-03-02T06:20:02;8.40;1.00
314;DHT22;143;51.634;7.112;2024-03-02T06:22:28;8.40;1.00
314;DHT22;143;51.634;7.112;2024-03-02T06:24:53;8.30;1.00
314;DHT22;143;51.634;7.112;2024-03-02T06:27:19;8.10;1.00
314;DHT22;143;51.634;7.112;2024-03-02T06:29:45;8.00;1.00
314;DHT22;143;51.634;7.112;2024-03-02T06:32:10;8.20;1.00
314;DHT22;143;51.634;7.112;2024-03-02T06:34:36;8.20;1.00
314;DHT22;143;51.634;7.112;2024-03-02T06:37:01;8.40;1.00
314;DHT22;143;51.634;7.112;2024-03-02T06:39:27;8.10;1.00
314;DHT22;143;51.634;7.112;2024-03-02T06:41:53;8.20;1.00
314;DHT22;143;51.634;7.112;2024-03-02T06:44:18;8.10;1.00
314;DHT22;143;51.634;7.112;2024-03-02T06:46:44;8.00;1.00
314;DHT22;143;51.634;7.112;2024-03-02T06:49:09;8.20;1.00
314;DHT22;143;51.634;7.112;2024-03-02T06:51:38;8.10;1.00
314;DHT22;143;51.634;7.112;2024-03-02T06:54:03;8.20;1.00
314;DHT22;143;51.634;7.112;2024-03-02T06:56:29;7.90;1.00
314;DHT22;143;51.634;7.112;2024-03-02T06:58:56;8.00;1.00
314;DHT22;143;51.634;7.112;2024-03-02T07:01:21;7.90;1.00
314;DHT22;143;51.634;7.112;2024-03-02T07:03:47;8.00;1.30
314;DHT22;143;51.634;7.112;2024-03-02T07:06:12;7.80;7.70
314;DHT22;143;51.634;7.112;2024-03-02T07:08:38;7.90;12.00
314;DHT22;143;51.634;7.112;2024-03-02T07:11:03;7.90;19.00
314;DHT22;143;51.634;7.112;2024-03-02T07:13:29;8.00;22.30
314;DHT22;143;51.634;7.112;2024-03-02T07:15:55;7.90;30.00
314;DHT22;143;51.634;7.112;2024-03-02T07:18:30;8.10;38.70
314;DHT22;143;51.634;7.112;2024-03-02T07:20:56;7.70;48.50
314;DHT22;143;51.634;7.112;2024-03-02T07:23:24;7.80;61.00
314;DHT22;143;51.634;7.112;2024-03-02T07:25:52;8.00;75.10
314;DHT22;143;51.634;7.112;2024-03-02T07:28:24;7.90;84.70
314;DHT22;143;51.634;7.112;2024-03-02T07:31:02;8.10;88.90
314;DHT22;143;51.634;7.112;2024-03-02T07:33:30;8.20;90.20
314;DHT22;143;51.634;7.112;2024-03-02T07:35:56;8.20;91.30
314;DHT22;143;51.634;7.112;2024-03-02T07:38:22;8.20;91.70
314;DHT22;143;51.634;7.112;2024-03-02T07:40:48;8.50;78.90
314;DHT22;143;51.634;7.112;2024-03-02T07:43:18;8.50;75.70
314;DHT22;143;51.634;7.112;2024-03-02T07:45:47;8.50;80.20
314;DHT22;143;51.634;7.112;2024-03-02T07:48:14;8.50;75.30
314;DHT22;143;51.634;7.112;2024-03-02T07:50:39;8.70;71.60
314;DHT22;143;51.634;7.112;2024-03-02T07:53:05;8.80;53.30
314;DHT22;143;51.634;7.112;2024-03-02T07:55:31;9.10;40.40
314;DHT22;143;51.634;7.112;2024-03-02T07:57:57;9.00;24.60
314;DHT22;143;51.634;7.112;2024-03-02T08:00:23;9.10;22.10
314;DHT22;143;51.634;7.112;2024-03-02T08:02:50;9.40;13.40
314;DHT22;143;51.634;7.112;2024-03-02T08:05:16;9.50;1.00
314;DHT22;143;51.634;7.112;2024-03-02T08:07:44;9.40;1.00
314;DHT22;143;51.634;7.112;2024-03-02T08:10:10;9.40;1.00
314;DHT22;143;51.634;7.112;2024-03-02T08:12:36;9.50;1.00
314;DHT22;143;51.634;7.112;2024-03-02T08:15:01;9.70;1.00
314;DHT22;143;51.634;7.112;2024-03-02T08:17:27;9.70;1.00
314;DHT22;143;51.634;7.112;2024-03-02T08:19:52;9.80;1.00
314;DHT22;143;51.634;7.112;2024-03-02T08:22:18;9.80;1.00
314;DHT22;143;51.634;7.112;2024-03-02T08:24:44;9.80;1.00
314;DHT22;143;51.634;7.112;2024-03-02T08:27:10;9.80;1.00
314;DHT22;143;51.634;7.112;2024-03-02T08:29:36;9.90;1.00
314;DHT22;143;51.634;7.112;2024-03-02T08:32:01;10.00;1.00
314;DHT22;143;51.634;7.112;2024-03-02T08:34:27;10.20;1.00
314;DHT22;143;51.634;7.112;2024-03-02T08:36:52;10.10;1.00
314;DHT22;143;51.634;7.112;2024-03-02T08:39:18;10.10;1.00
314;DHT22;143;51.634;7.112;2024-03-02T08:41:45;10.20;1.00
314;DHT22;143;51.634;7.112;2024-03-02T08:44:12;10.20;1.00
314;DHT22;143;51.634;7.112;2024-03-02T08:46:39;10.20;1.00
314;DHT22;143;51.634;7.112;2024-03-02T08:49:04;10.30;1.00
314;DHT22;143;51.634;7.112;2024-03-02T08:51:30;10.40;1.00
314;DHT22;143;51.634;7.112;2024-03-02T08:53:56;10.30;1.00
314;DHT22;143;51.634;7.112;2024-03-02T08:56:23;10.40;1.00
314;DHT22;143;51.634;7.112;2024-03-02T08:58:50;10.40;1.00
314;DHT22;143;51.634;7.112;2024-03-02T09:01:16;10.50;1.00
314;DHT22;143;51.634;7.112;2024-03-02T09:03:42;10.60;1.00
314;DHT22;143;51.634;7.112;2024-03-02T09:06:12;10.70;1.00
314;DHT22;143;51.634;7.112;2024-03-02T09:08:38;10.80;1.00
314;DHT22;143;51.634;7.112;2024-03-02T09:11:05;10.90;1.00
314;DHT22;143;51.634;7.112;2024-03-02T09:13:31;11.00;1.00
314;DHT22;143;51.634;7.112;2024-03-02T09:15:57;11.10;1.00
314;DHT22;143;51.634;7.112;2024-03-02T09:18:22;11.10;1.00
314;DHT22;143;51.634;7.112;2024-03-02T09:20:48;11.10;1.00
314;DHT22;143;51.634;7.112;2024-03-02T09:23:13;11.20;1.00
314;DHT22;143;51.634;7.112;2024-03-02T09:25:39;11.20;1.00
314;DHT22;143;51.634;7.112;2024-03-02T09:28:05;11.20;1.00
314;DHT22;143;51.634;7.112;2024-03-02T09:30:30;11.20;1.00
314;DHT22;143;51.634;7.112;2024-03-02T09:32:56;11.30;1.00
314;DHT22;143;51.634;7.112;2024-03-02T09:35:22;11.40;1.00
314;DHT22;143;51.634;7.112;2024-03-02T09:37:47;11.50;1.00
314;DHT22;143;51.634;7.112;2024-03-02T09:40:13;11.60;1.00
314;DHT22;143;51.634;7.112;2024-03-02T09:42:40;11.60;1.00
314;DHT22;143;51.634;7.112;2024-03-02T09:45:06;11.70;1.00
314;DHT22;143;51.634;7.112;2024-03-02T09:47:32;11.70;1.00
314;DHT22;143;51.634;7.112;2024-03-02T09:49:58;11.60;1.00
314;DHT22;143;51.634;7.112;2024-03-02T09:52:23;11.60;1.00
314;DHT22;143;51.634;7.112;2024-03-02T09:54:49;11.60;1.00
314;DHT22;143;51.634;7.112;2024-03-02T09:57:15;11.60;1.00
314;DHT22;143;51.634;7.112;2024-03-02T09:59:41;11.60;1.00
314;DHT22;143;51.634;7.112;2024-03-02T10:02:06;11.70;1.00
314;DHT22;143;51.634;7.112;2024-03-02T10:04:33;11.80;1.00
314;DHT22;143;51.634;7.112;2024-03-02T10:07:15;11.90;1.00
314;DHT22;143;51.634;7.112;2024-03-02T10:09:42;12.00;1.00
314;DHT22;143;51.634;7.112;2024-03-02T10:12:10;12.10;1.00
314;DHT22;143;51.634;7.112;2024-03-02T10:14:37;12.20;1.00
314;DHT22;143;51.634;7.112;2024-03-02T10:17:13;12.40;1.00
314;DHT22;143;51.634;7.112;2024-03-02T10:19:39;12.50;1.00
314;DHT22;143;51.634;7.112;2024-03-02T10:22:09;12.60;1.00
314;DHT22;143;51.634;7.112;2024-03-02T10:24:39;12.70;1.00
314;DHT22;143;51.634;7.112;2024-03-02T10:27:16;12.80;1.00
314;DHT22;143;51.634;7.112;2024-03-02T10:29:42;13.00;1.00
314;DHT22;143;51.634;7.112;2024-03-02T10:32:11;13.10;1.00
314;DHT22;143;51.634;7.112;2024-03-02T10:34:39;13.10;1.00
314;DHT22;143;51.634;7.112;2024-03-02T10:37:05;13.10;1.00
314;DHT22;143;51.634;7.112;2024-03-02T10:39:32;13.10;1.00
314;DHT22;143;51.634;7.112;2024-03-02T10:42:02;13.20;1.00
314;DHT22;143;51.634;7.112;2024-03-02T10:44:29;13.10;1.00
314;DHT22;143;51.634;7.112;2024-03-02T10:46:55;13.10;1.00
314;DHT22;143;51.634;7.112;2024-03-02T10:49:23;13.00;1.00
314;DHT22;143;51.634;7.112;2024-03-02T10:51:49;13.10;1.00
314;DHT22;143;51.634;7.112;2024-03-02T10:54:15;13.30;1.00
314;DHT22;143;51.634;7.112;2024-03-02T10:56:42;13.40;1.00
314;DHT22;143;51.634;7.112;2024-03-02T10:59:33;13.40;1.00
314;DHT22;143;51.634;7.112;2024-03-02T11:02:00;13.40;1.00
314;DHT22;143;51.634;7.112;2024-03-02T11:04:28;13.50;1.00
314;DHT22;143;51.634;7.112;2024-03-02T11:07:02;13.60;1.00
314;DHT22;143;51.634;7.112;2024-03-02T11:09:28;13.70;1.00
314;DHT22;143;51.634;7.112;2024-03-02T11:12:12;13.80;1.00
314;DHT22;143;51.634;7.112;2024-03-02T11:14:41;13.80;1.00
314;DHT22;143;51.634;7.112;2024-03-02T11:17:11;13.70;1.00
314;DHT22;143;51.634;7.112;2024-03-02T11:19:40;13.70;1.00
314;DHT22;143;51.634;7.112;2024-03-02T11:22:06;13.60;1.00
314;DHT22;143;51.634;7.112;2024-03-02T11:24:33;13.60;1.00
314;DHT22;143;51.634;7.112;2024-03-02T11:27:00;13.80;1.00
314;DHT22;143;51.634;7.112;2024-03-02T11:32:02;14.30;1.00
314;DHT22;143;51.634;7.112;2024-03-02T11:34:36;14.40;1.00
314;DHT22;143;51.634;7.112;2024-03-02T11:37:05;14.40;1.00
314;DHT22;143;51.634;7.112;2024-03-02T11:39:30;14.60;1.00
314;DHT22;143;51.634;7.112;2024-03-02T11:41:57;14.90;1.00
314;DHT22;143;51.634;7.112;2024-03-02T11:44:27;15.00;1.00
314;DHT22;143;51.634;7.112;2024-03-02T11:47:01;15.00;1.00
314;DHT22;143;51.634;7.112;2024-03-02T11:49:50;14.90;1.00
314;DHT22;143;51.634;7.112;2024-03-02T11:52:17;14.80;1.00
314;DHT22;143;51.634;7.112;2024-03-02T11:54:44;14.60;1.00
314;DHT22;143;51.634;7.112;2024-03-02T11:57:23;14.60;1.00
314;DHT22;143;51.634;7.112;2024-03-02T11:59:49;14.50;1.00
314;DHT22;143;51.634;7.112;2024-03-02T12:02:19;14.50;1.00
314;DHT22;143;51.634;7.112;2024-03-02T12:04:46;14.50;1.00
314;DHT22;143;51.634;7.112;2024-03-02T12:07:21;14.60;1.00
314;DHT22;143;51.634;7.112;2024-03-02T12:09:48;14.70;1.00
314;DHT22;143;51.634;7.112;2024-03-02T12:12:13;14.70;1.00
314;DHT22;143;51.634;7.112;2024-03-02T12:14:50;14.80;1.00
314;DHT22;143;51.634;7.112;2024-03-02T12:17:16;14.80;1.00
314;DHT22;143;51.634;7.112;2024-03-02T12:19:41;14.70;1.00
314;DHT22;143;51.634;7.112;2024-03-02T12:22:07;14.70;1.00
314;DHT22;143;51.634;7.112;2024-03-02T12:24:33;14.60;1.00
314;DHT22;143;51.634;7.112;2024-03-02T12:26:58;14.60;1.00
314;DHT22;143;51.634;7.112;2024-03-02T12:29:24;14.60;1.00
314;DHT22;143;51.634;7.112;2024-03-02T12:31:51;14.60;1.00
314;DHT22;143;51.634;7.112;2024-03-02T12:34:21;14.60;1.00
314;DHT22;143;51.634;7.112;2024-03-02T12:36:47;14.50;1.00
314;DHT22;143;51.634;7.112;2024-03-02T12:39:18;14.50;1.00
314;DHT22;143;51.634;7.112;2024-03-02T12:41:45;14.50;1.00
314;DHT22;143;51.634;7.112;2024-03-02T12:44:11;14.60;1.00
314;DHT22;143;51.634;7.112;2024-03-02T12:46:37;14.70;1.00
314;DHT22;143;51.634;7.112;2024-03-02T12:49:11;14.60;1.00
314;DHT22;143;51.634;7.112;2024-03-02T12:51:40;14.60;1.00
314;DHT22;143;51.634;7.112;2024-03-02T12:54:07;14.60;1.00
314;DHT22;143;51.634;7.112;2024-03-02T12:56:33;14.60;1.00
314;DHT22;143;51.634;7.112;2024-03-02T12:58:59;14.60;1.00
314;DHT22;143;51.634;7.112;2024-03-02T13:01:25;14.60;1.00
314;DHT22;143;51.634;7.112;2024-03-02T13:03:52;14.60;1.00
314;DHT22;143;51.634;7.112;2024-03-02T13:06:18;14.50;1.00
314;DHT22;143;51.634;7.112;2024-03-02T13:08:45;14.40;1.00
314;DHT22;143;51.634;7.112;2024-03-02T13:11:12;14.40;1.00
314;DHT22;143;51.634;7.112;2024-03-02T13:13:39;14.30;1.00
314;DHT22;143;51.634;7.112;2024-03-02T13:16:09;14.30;1.00
314;DHT22;143;51.634;7.112;2024-03-02T13:18:35;14.30;1.00
314;DHT22;143;51.634;7.112;2024-03-02T13:21:01;14.40;1.00
314;DHT22;143;51.634;7.112;2024-03-02T13:23:26;14.40;1.00
314;DHT22;143;51.634;7.112;2024-03-02T13:25:52;14.40;1.00
314;DHT22;143;51.634;7.112;2024-03-02T13:28:17;14.40;1.00
314;DHT22;143;51.634;7.112;2024-03-02T13:30:43;14.40;1.00
314;DHT22;143;51.634;7.112;2024-03-02T13:33:08;14.40;1.00
314;DHT22;143;51.634;7.112;2024-03-02T13:35:34;14.40;1.00
314;DHT22;143;51.634;7.112;2024-03-02T13:38:00;14.40;1.00
314;DHT22;143;51.634;7.112;2024-03-02T13:40:25;14.50;1.00
314;DHT22;143;51.634;7.112;2024-03-02T13:42:51;14.50;1.00
314;DHT22;143;51.634;7.112;2024-03-02T13:45:19;14.60;1.00
314;DHT22;143;51.634;7.112;2024-03-02T13:47:44;14.70;1.00
314;DHT22;143;51.634;7.112;2024-03-02T13:50:10;14.70;1.00
314;DHT22;143;51.634;7.112;2024-03-02T13:52:35;14.70;1.00
314;DHT22;143;51.634;7.112;2024-03-02T13:55:01;14.60;1.00
314;DHT22;143;51.634;7.112;2024-03-02T13:57:27;14.60;1.00
314;DHT22;143;51.634;7.112;2024-03-02T13:59:53;14.50;1.00
314;DHT22;143;51.634;7.112;2024-03-02T14:02:20;14.40;1.00
314;DHT22;143;51.634;7.112;2024-03-02T14:04:45;14.40;1.00
314;DHT22;143;51.634;7.112;2024-03-02T14:07:11;14.30;1.00
314;DHT22;143;51.634;7.112;2024-03-02T14:09:37;14.30;1.00
314;DHT22;143;51.634;7.112;2024-03-02T14:12:03;14.20;1.00
314;DHT22;143;51.634;7.112;2024-03-02T14:14:29;14.20;1.00
314;DHT22;143;51.634;7.112;2024-03-02T14:16:54;14.20;1.00
314;DHT22;143;51.634;7.112;2024-03-02T14:19:29;14.20;1.00
314;DHT22;143;51.634;7.112;2024-03-02T14:21:55;14.20;1.00
314;DHT22;143;51.634;7.112;2024-03-02T14:24:21;14.20;1.00
314;DHT22;143;51.634;7.112;2024-03-02T14:26:52;14.20;1.00
314;DHT22;143;51.634;7.112;2024-03-02T14:29:18;14.10;1.00
314;DHT22;143;51.634;7.112;2024-03-02T14:31:43;14.10;1.00
314;DHT22;143;51.634;7.112;2024-03-02T14:34:09;14.00;1.00
314;DHT22;143;51.634;7.112;2024-03-02T14:36:35;14.00;1.00
314;DHT22;143;51.634;7.112;2024-03-02T14:39:00;14.00;1.00
314;DHT22;143;51.634;7.112;2024-03-02T14:41:26;14.00;1.00
314;DHT22;143;51.634;7.112;2024-03-02T14:43:52;14.00;1.00
314;DHT22;143;51.634;7.112;2024-03-02T14:46:18;14.00;1.00
314;DHT22;143;51.634;7.112;2024-03-02T14:48:46;14.00;1.00
314;DHT22;143;51.634;7.112;2024-03-02T14:51:11;14.00;1.00
314;DHT22;143;51.634;7.112;2024-03-02T14:53:37;14.00;1.00
314;DHT22;143;51.634;7.112;2024-03-02T14:56:04;14.10;1.00
314;DHT22;143;51.634;7.112;2024-03-02T14:58:29;14.20;1.00
314;DHT22;143;51.634;7.112;2024-03-02T15:00:55;14.30;1.00
314;DHT22;143;51.634;7.112;2024-03-02T15:03:21;14.40;1.00
314;DHT22;143;51.634;7.112;2024-03-02T15:05:46;14.50;1.00
314;DHT22;143;51.634;7.112;2024-03-02T15:08:13;14.60;1.00
314;DHT22;143;51.634;7.112;2024-03-02T15:10:38;14.70;1.00
314;DHT22;143;51.634;7.112;2024-03-02T15:13:04;14.70;1.00
314;DHT22;143;51.634;7.112;2024-03-02T15:15:29;14.70;1.00
314;DHT22;143;51.634;7.112;2024-03-02T15:17:56;14.60;1.00
314;DHT22;143;51.634;7.112;2024-03-02T15:20:22;14.60;1.00
314;DHT22;143;51.634;7.112;2024-03-02T15:22:47;14.50;1.00
314;DHT22;143;51.634;7.112;2024-03-02T15:25:13;14.50;1.00
314;DHT22;143;51.634;7.112;2024-03-02T15:27:41;14.40;1.00
314;DHT22;143;51.634;7.112;2024-03-02T15:30:07;14.40;1.00
314;DHT22;143;51.634;7.112;2024-03-02T15:32:33;14.40;1.00
314;DHT22;143;51.634;7.112;2024-03-02T15:34:59;14.30;1.00
314;DHT22;143;51.634;7.112;2024-03-02T15:37:25;14.30;1.00
314;DHT22;143;51.634;7.112;2024-03-02T15:39:51;14.30;1.00
314;DHT22;143;51.634;7.112;2024-03-02T15:42:16;14.20;1.00
314;DHT22;143;51.634;7.112;2024-03-02T15:44:43;14.20;1.00
314;DHT22;143;51.634;7.112;2024-03-02T15:47:09;14.10;1.00
314;DHT22;143;51.634;7.112;2024-03-02T15:49:34;14.10;1.00
314;DHT22;143;51.634;7.112;2024-03-02T15:52:00;14.10;1.00
314;DHT22;143;51.634;7.112;2024-03-02T15:54:26;14.00;1.00
314;DHT22;143;51.634;7.112;2024-03-02T15:56:52;14.00;1.00
314;DHT22;143;51.634;7.112;2024-03-02T15:59:18;14.00;1.00
314;DHT22;143;51.634;7.112;2024-03-02T16:01:44;13.90;1.00
314;DHT22;143;51.634;7.112;2024-03-02T16:04:09;13.90;1.00
314;DHT22;143;51.634;7.112;2024-03-02T16:06:35;13.90;1.00
314;DHT22;143;51.634;7.112;2024-03-02T16:09:00;13.90;1.00
314;DHT22;143;51.634;7.112;2024-03-02T16:11:26;13.80;1.00
314;DHT22;143;51.634;7.112;2024-03-02T16:13:52;13.80;1.00
314;DHT22;143;51.634;7.112;2024-03-02T16:16:17;13.80;1.00
314;DHT22;143;51.634;7.112;2024-03-02T16:18:43;13.70;1.00
314;DHT22;143;51.634;7.112;2024-03-02T16:21:09;13.70;1.00
314;DHT22;143;51.634;7.112;2024-03-02T16:23:34;13.70;1.00
314;DHT22;143;51.634;7.112;2024-03-02T16:26:00;13.70;1.00
314;DHT22;143;51.634;7.112;2024-03-02T16:28:26;13.60;1.00
314;DHT22;143;51.634;7.112;2024-03-02T16:30:51;13.60;1.00
314;DHT22;143;51.634;7.112;2024-03-02T16:33:18;13.60;1.00
314;DHT22;143;51.634;7.112;2024-03-02T16:35:44;13.60;1.00
314;DHT22;143;51.634;7.112;2024-03-02T16:38:13;13.60;1.00
314;DHT22;143;51.634;7.112;2024-03-02T16:40:40;13.50;1.00
314;DHT22;143;51.634;7.112;2024-03-02T16:43:05;13.50;1.00
314;DHT22;143;51.634;7.112;2024-03-02T16:45:31;13.50;1.00
314;DHT22;143;51.634;7.112;2024-03-02T16:47:57;13.40;1.00
314;DHT22;143;51.634;7.112;2024-03-02T16:50:23;13.40;1.00
314;DHT22;143;51.634;7.112;2024-03-02T16:52:48;13.40;1.00
314;DHT22;143;51.634;7.112;2024-03-02T16:55:14;13.40;1.00
314;DHT22;143;51.634;7.112;2024-03-02T16:57:40;13.30;1.00
314;DHT22;143;51.634;7.112;2024-03-02T17:00:06;13.40;1.00
314;DHT22;143;51.634;7.112;2024-03-02T17:02:33;13.40;1.00